Time;durP1;ratioP1;P1;durP2;ratioP2;P2;SDS_P1;SDS_P2;PMS_P1;PMS_P2;Temp;Humidity;BMP_temperature;BMP_pressure;BME280_temperature;BME280_humidity;BME280_pressure;Samples;Min_cycle;Max_cycle;Signal;HPM_P1;HPM_P2
2022/08/19 00:00:35;;;;;;;4.15;0.90;;;15.70;99.90;;;;;;5013873;28;20217;-83
2022/08/19 00:03:07;;;;;;;0.93;0.70;;;15.60;99.90;;;;;;5009927;28;20198;-84
2022/08/19 00:05:38;;;;;;;2.03;0.95;;;15.70;99.90;;;;;;5012200;28;20230;-68
2022/08/19 00:08:08;;;;;;;3.55;0.82;;;15.60;99.90;;;;;;5012202;28;20194;-83
2022/08/19 00:10:39;;;;;;;2.03;0.73;;;15.60;99.90;;;;;;5010967;28;20195;-83
2022/08/19 00:13:10;;;;;;;2.55;0.90;;;15.50;99.90;;;;;;5015339;28;20294;-83
2022/08/19 00:15:44;;;;;;;2.67;0.70;;;15.50;99.90;;;;;;5002997;28;20321;-78
2022/08/19 00:18:15;;;;;;;0.95;0.60;;;15.60;99.90;;;;;;5014650;28;20217;-85
2022/08/19 00:20:46;;;;;;;2.47;0.68;;;15.70;99.90;;;;;;5008440;28;20203;-82
2022/08/19 00:23:16;;;;;;;2.78;0.70;;;15.60;99.90;;;;;;5013690;28;20187;-68
2022/08/19 00:25:47;;;;;;;2.60;0.90;;;15.70;99.90;;;;;;5014171;28;20698;-79
2022/08/19 00:28:18;;;;;;;1.15;0.65;;;15.70;99.90;;;;;;5010626;28;20566;-71
2022/08/19 00:30:52;;;;;;;1.58;0.70;;;15.80;99.90;;;;;;5009806;28;20202;-71
2022/08/19 00:33:23;;;;;;;2.28;0.57;;;15.90;99.90;;;;;;5007693;28;20216;-67
2022/08/19 00:35:54;;;;;;;2.35;0.70;;;16.00;99.90;;;;;;5007650;28;20566;-71
2022/08/19 00:38:25;;;;;;;1.90;0.80;;;16.20;99.90;;;;;;5007858;28;20284;-71
2022/08/19 00:40:56;;;;;;;1.67;0.73;;;16.30;99.90;;;;;;5011052;28;20195;-67
2022/08/19 00:43:28;;;;;;;3.40;0.70;;;16.50;99.90;;;;;;5008735;28;20192;-70
2022/08/19 00:46:01;;;;;;;1.63;0.75;;;16.60;99.90;;;;;;5008911;28;20242;-68
2022/08/19 00:48:32;;;;;;;1.45;0.60;;;16.70;99.90;;;;;;5008703;28;20183;-72
2022/08/19 00:51:03;;;;;;;1.00;0.60;;;16.70;99.90;;;;;;5010623;28;20191;-67
2022/08/19 00:53:36;;;;;;;2.03;0.70;;;16.80;99.90;;;;;;5007397;28;20184;-66
2022/08/19 00:56:08;;;;;;;1.33;0.60;;;16.70;99.90;;;;;;5012739;28;20187;-67
2022/08/19 00:58:39;;;;;;;0.80;0.50;;;16.80;99.90;;;;;;4997209;28;20234;-73
2022/08/19 01:01:13;;;;;;;1.85;0.60;;;16.80;99.90;;;;;;5011324;28;20207;-68
2022/08/19 01:03:44;;;;;;;1.02;0.55;;;16.80;99.90;;;;;;5014178;28;20202;-72
2022/08/19 01:06:15;;;;;;;3.17;0.65;;;17.00;99.90;;;;;;5015072;28;20301;-74
2022/08/19 01:08:46;;;;;;;1.52;0.40;;;17.00;99.90;;;;;;5014168;28;20554;-75
2022/08/19 01:11:17;;;;;;;0.40;0.40;;;17.10;99.90;;;;;;5014675;28;20191;-69
2022/08/19 01:13:49;;;;;;;1.45;0.55;;;17.10;99.90;;;;;;5013531;28;20198;-71
2022/08/19 01:16:24;;;;;;;0.88;0.50;;;17.10;99.90;;;;;;5011270;28;20186;-67
2022/08/19 01:18:56;;;;;;;0.75;0.45;;;17.30;99.90;;;;;;5010893;28;20193;-72
2022/08/19 01:21:43;;;;;;;2.40;0.40;;;17.40;99.90;;;;;;5006579;28;20194;-67
2022/08/19 01:24:15;;;;;;;1.17;0.60;;;17.50;99.90;;;;;;5011398;28;20238;-72
2022/08/19 01:26:47;;;;;;;0.60;0.40;;;17.70;99.90;;;;;;5004387;28;20584;-67
2022/08/19 01:29:18;;;;;;;0.65;0.40;;;18.00;99.90;;;;;;5013857;28;20282;-69
2022/08/19 01:31:52;;;;;;;2.33;0.60;;;18.30;99.90;;;;;;5013825;28;20187;-75
2022/08/19 01:34:23;;;;;;;0.70;0.50;;;18.60;99.90;;;;;;5007004;28;20223;-77
2022/08/19 01:36:53;;;;;;;2.22;0.90;;;18.70;99.90;;;;;;5003303;28;20710;-77
2022/08/19 01:39:28;;;;;;;0.80;0.60;;;18.70;99.90;;;;;;5005439;28;20643;-69
2022/08/19 01:41:58;;;;;;;0.30;0.30;;;18.70;99.90;;;;;;5013444;28;20194;-71
2022/08/19 01:44:29;;;;;;;1.15;0.50;;;18.60;99.90;;;;;;5008783;28;20214;-77
2022/08/19 01:47:00;;;;;;;1.02;0.57;;;18.40;99.90;;;;;;5008928;28;20198;-80
2022/08/19 01:49:31;;;;;;;1.25;0.40;;;18.30;99.90;;;;;;5011865;28;20198;-74
2022/08/19 01:52:03;;;;;;;0.68;0.40;;;18.30;99.90;;;;;;5007393;28;20195;-73
2022/08/19 01:54:36;;;;;;;0.90;0.60;;;18.30;99.90;;;;;;5008629;28;20187;-76
2022/08/19 01:57:10;;;;;;;2.92;0.40;;;18.40;99.90;;;;;;5010538;28;20202;-76
2022/08/19 01:59:42;;;;;;;0.30;0.30;;;18.40;99.90;;;;;;5013006;28;20650;-71
2022/08/19 02:02:13;;;;;;;1.48;0.40;;;18.30;99.90;;;;;;5013173;28;20199;-76
2022/08/19 02:04:45;;;;;;;1.05;0.60;;;18.40;99.90;;;;;;5007921;28;20210;-77
2022/08/19 02:07:16;;;;;;;1.10;0.43;;;18.40;99.90;;;;;;5011694;28;20270;-71
2022/08/19 02:09:49;;;;;;;0.35;0.35;;;18.30;99.90;;;;;;5009432;28;20564;-77
2022/08/19 02:12:20;;;;;;;0.80;0.40;;;18.30;99.90;;;;;;5003693;28;20634;-75
2022/08/19 02:14:51;;;;;;;0.85;0.40;;;18.30;99.90;;;;;;5011664;28;20203;-76
2022/08/19 02:17:22;;;;;;;1.38;0.40;;;18.20;99.90;;;;;;5005598;28;20294;-79
2022/08/19 02:19:53;;;;;;;0.30;0.22;;;18.20;99.90;;;;;;5009622;28;20191;-72
2022/08/19 02:22:25;;;;;;;0.22;0.20;;;18.30;99.90;;;;;;5011549;28;20191;-67
2022/08/19 02:24:58;;;;;;;0.80;0.40;;;18.30;99.90;;;;;;5001661;28;20215;-67
2022/08/19 02:27:28;;;;;;;1.55;0.43;;;18.30;99.90;;;;;;5006584;28;20191;-66
2022/08/19 02:29:59;;;;;;;0.40;0.40;;;18.40;99.90;;;;;;5012803;28;20202;-67
2022/08/19 02:32:30;;;;;;;0.55;0.40;;;18.50;99.90;;;;;;5005587;28;20269;-67
2022/08/19 02:35:01;;;;;;;1.55;0.60;;;18.70;99.90;;;;;;5006590;28;20759;-66
2022/08/19 02:40:21;;;;;;;0.55;0.40;;;19.10;99.90;;;;;;5010546;28;20286;-66
2022/08/19 02:42:51;;;;;;;1.25;0.40;;;19.20;99.90;;;;;;5009825;28;20664;-78
2022/08/19 02:45:22;;;;;;;0.40;0.40;;;19.40;99.90;;;;;;5011253;28;20210;-68
2022/08/19 02:47:53;;;;;;;2.10;0.60;;;19.80;99.90;;;;;;5002876;28;20188;-67
2022/08/19 02:50:24;;;;;;;3.40;0.88;;;19.90;99.90;;;;;;5003494;28;20195;-67
2022/08/19 02:52:55;;;;;;;2.92;0.50;;;20.10;99.90;;;;;;5010859;28;20191;-80
2022/08/19 02:55:27;;;;;;;0.57;0.30;;;20.10;99.90;;;;;;5011008;28;20553;-79
2022/08/19 02:57:59;;;;;;;0.75;0.32;;;20.10;99.90;;;;;;5009357;28;20554;-80
2022/08/19 03:00:30;;;;;;;0.90;0.60;;;20.10;99.90;;;;;;5012011;28;20195;-67
2022/08/19 03:03:01;;;;;;;0.43;0.10;;;20.00;99.90;;;;;;5007918;28;20187;-82
2022/08/19 03:05:32;;;;;;;0.40;0.20;;;19.90;99.90;;;;;;5011962;28;20206;-67
2022/08/19 03:08:03;;;;;;;0.75;0.30;;;20.00;99.90;;;;;;5007915;28;20187;-77
2022/08/19 03:10:36;;;;;;;1.25;0.20;;;19.90;99.90;;;;;;5006434;28;20274;-68
2022/08/19 03:13:06;;;;;;;0.30;0.22;;;19.90;99.90;;;;;;5006488;28;20199;-78
2022/08/19 03:15:41;;;;;;;2.10;0.40;;;19.80;99.90;;;;;;5011817;28;20685;-76
2022/08/19 03:18:11;;;;;;;0.85;0.40;;;19.80;99.90;;;;;;5005809;28;20197;-75
2022/08/19 03:20:46;;;;;;;0.28;0.20;;;19.80;99.90;;;;;;5004167;28;20569;-68
2022/08/19 03:23:18;;;;;;;0.50;0.22;;;19.80;99.90;;;;;;5006428;28;20194;-74
2022/08/19 03:25:52;;;;;;;0.20;0.20;;;19.70;99.90;;;;;;5004120;28;20215;-69
2022/08/19 03:28:24;;;;;;;0.20;0.20;;;19.70;99.90;;;;;;5011373;28;20270;-67
2022/08/19 03:31:03;;;;;;;0.32;0.30;;;19.70;99.90;;;;;;5008731;28;20195;-67
2022/08/19 03:33:36;;;;;;;0.30;0.30;;;19.80;99.90;;;;;;5010143;28;20615;-67
2022/08/19 03:36:12;;;;;;;0.77;0.30;;;19.90;99.90;;;;;;5013342;28;20202;-67
2022/08/19 03:38:48;;;;;;;0.80;0.30;;;20.00;99.90;;;;;;5006244;28;20634;-67
2022/08/19 03:41:23;;;;;;;0.85;0.40;;;20.00;99.90;;;;;;5011489;28;20203;-67
2022/08/19 03:43:54;;;;;;;0.28;0.25;;;19.90;99.90;;;;;;5005423;28;20657;-67
2022/08/19 03:46:27;;;;;;;0.20;0.20;;;19.70;99.90;;;;;;5014520;28;20225;-67
2022/08/19 03:48:59;;;;;;;0.20;0.20;;;19.50;99.90;;;;;;5016026;28;20191;-67
2022/08/19 03:51:32;;;;;;;0.75;0.55;;;19.40;99.90;;;;;;5015629;28;20202;-69
2022/08/19 03:54:05;;;;;;;0.82;0.20;;;19.30;99.90;;;;;;5015292;28;20189;-68
2022/08/19 03:56:39;;;;;;;0.98;0.32;;;19.20;99.90;;;;;;5014209;28;20203;-67
2022/08/19 03:59:11;;;;;;;0.82;0.40;;;19.20;99.90;;;;;;5015480;28;20662;-67
2022/08/19 04:01:42;;;;;;;0.20;0.20;;;19.20;99.90;;;;;;5015359;28;20650;-69
2022/08/19 04:04:13;;;;;;;0.20;0.20;;;19.20;99.90;;;;;;5015917;28;20708;-67
2022/08/19 04:06:46;;;;;;;2.08;0.30;;;19.10;99.90;;;;;;5015122;28;20215;-68
2022/08/19 04:09:17;;;;;;;0.30;0.30;;;19.10;99.90;;;;;;5015306;28;20279;-67
2022/08/19 04:11:53;;;;;;;1.25;0.52;;;19.00;99.90;;;;;;5015173;28;20218;-66
2022/08/19 04:14:26;;;;;;;0.98;0.70;;;19.00;99.90;;;;;;5014558;28;20248;-67
2022/08/19 04:16:57;;;;;;;0.45;0.40;;;19.00;99.90;;;;;;5008225;28;20198;-68
2022/08/19 04:19:30;;;;;;;0.63;0.60;;;19.00;99.90;;;;;;5010331;28;20197;-70
2022/08/19 04:22:01;;;;;;;2.15;0.40;;;19.00;99.90;;;;;;5011776;28;20183;-67
2022/08/19 04:24:32;;;;;;;0.30;0.30;;;19.00;99.90;;;;;;5012660;28;20227;-71
2022/08/19 04:27:07;;;;;;;1.02;0.30;;;19.10;99.90;;;;;;5006775;28;20219;-68
2022/08/19 04:29:39;;;;;;;0.80;0.30;;;19.30;99.90;;;;;;5013775;28;20257;-70
2022/08/19 04:32:10;;;;;;;0.60;0.40;;;19.30;99.90;;;;;;5010861;28;20199;-67
2022/08/19 04:34:42;;;;;;;0.73;0.30;;;19.30;99.90;;;;;;5010354;28;20256;-73
2022/08/19 04:37:13;;;;;;;0.63;0.30;;;19.40;99.90;;;;;;5010913;28;20230;-72
2022/08/19 04:42:42;;;;;;;1.48;0.20;;;19.30;99.90;;;;;;5014245;28;20206;-71
2022/08/19 04:45:15;;;;;;;0.20;0.20;;;19.20;99.90;;;;;;5014238;28;20211;-74
2022/08/19 04:47:46;;;;;;;0.38;0.20;;;19.20;99.90;;;;;;5010400;28;20203;-73
2022/08/19 04:50:18;;;;;;;0.20;0.20;;;19.10;99.90;;;;;;5014327;28;20187;-76
2022/08/19 04:52:48;;;;;;;0.38;0.20;;;19.10;99.90;;;;;;5014131;28;20199;-74
2022/08/19 04:55:19;;;;;;;1.13;0.30;;;19.00;99.90;;;;;;5012432;28;20206;-71
2022/08/19 04:57:52;;;;;;;0.35;0.35;;;19.00;99.90;;;;;;5012704;28;20198;-72
2022/08/19 05:00:23;;;;;;;0.52;0.38;;;19.00;99.90;;;;;;5013735;28;20195;-71
2022/08/19 05:02:53;;;;;;;0.73;0.43;;;19.00;99.90;;;;;;5013255;28;20209;-73
2022/08/19 05:05:24;;;;;;;1.70;0.40;;;18.90;99.90;;;;;;5012978;28;20218;-70
2022/08/19 05:07:55;;;;;;;1.80;0.30;;;18.80;99.90;;;;;;5011019;28;20681;-70
2022/08/19 05:10:26;;;;;;;0.30;0.30;;;18.50;99.90;;;;;;5006816;28;20191;-69
2022/08/19 05:12:59;;;;;;;0.57;0.40;;;18.20;99.90;;;;;;5012409;28;20209;-73
2022/08/19 05:15:30;;;;;;;1.88;0.40;;;18.00;99.90;;;;;;5013237;28;20214;-67
2022/08/19 05:23:33;;;;;;;0.40;0.30;;;17.70;99.90;;;;;;5009854;28;20704;-72
2022/08/19 05:26:04;;;;;;;1.20;0.28;;;17.60;99.90;;;;;;5009422;28;20578;-69
2022/08/19 05:28:37;;;;;;;0.20;0.20;;;17.70;99.90;;;;;;5011440;28;20199;-68
2022/08/19 05:31:08;;;;;;;2.65;0.25;;;17.70;99.90;;;;;;5009378;28;20205;-67
2022/08/19 05:33:39;;;;;;;1.55;0.40;;;17.70;99.90;;;;;;5007878;28;20224;-67
2022/08/19 05:36:10;;;;;;;0.40;0.40;;;17.70;99.90;;;;;;5005266;28;20203;-67
2022/08/19 05:38:41;;;;;;;0.95;0.20;;;17.70;99.90;;;;;;5007730;28;20285;-67
2022/08/19 05:41:13;;;;;;;0.30;0.30;;;17.70;99.90;;;;;;5013580;28;20191;-67
2022/08/19 05:43:46;;;;;;;0.88;0.30;;;17.80;99.90;;;;;;5013125;28;20199;-74
2022/08/19 05:46:21;;;;;;;0.20;0.20;;;18.00;99.90;;;;;;5012053;28;20717;-73
2022/08/19 05:48:52;;;;;;;0.45;0.30;;;18.10;99.90;;;;;;5011570;28;20203;-71
2022/08/19 05:51:22;;;;;;;1.08;0.20;;;18.10;99.90;;;;;;5013132;28;20200;-68
2022/08/19 05:53:53;;;;;;;0.40;0.40;;;18.00;99.90;;;;;;5011719;28;20209;-72
2022/08/19 05:56:24;;;;;;;0.90;0.20;;;17.90;99.90;;;;;;5005493;28;20554;-68
2022/08/19 05:58:57;;;;;;;0.52;0.20;;;17.80;99.90;;;;;;5013261;28;20206;-69
2022/08/19 06:01:28;;;;;;;0.77;0.30;;;17.80;99.90;;;;;;5012940;28;20195;-67
2022/08/19 06:03:59;;;;;;;0.35;0.20;;;17.70;99.90;;;;;;5012551;28;20195;-67
2022/08/19 06:06:30;;;;;;;0.73;0.40;;;17.60;99.90;;;;;;5004634;28;20246;-73
2022/08/19 06:09:01;;;;;;;0.98;0.30;;;17.60;99.90;;;;;;5011907;28;20199;-73
2022/08/19 06:11:38;;;;;;;0.25;0.25;;;17.60;99.90;;;;;;5005260;28;20206;-76
2022/08/19 06:14:13;;;;;;;0.30;0.30;;;17.70;99.90;;;;;;5011678;28;20195;-75
2022/08/19 06:16:45;;;;;;;0.30;0.30;;;17.80;99.90;;;;;;5011438;28;20195;-71
2022/08/19 06:19:18;;;;;;;0.82;0.70;;;17.90;99.90;;;;;;5012472;28;20198;-79
2022/08/19 06:21:50;;;;;;;0.43;0.30;;;18.00;99.90;;;;;;5012523;28;20562;-76
2022/08/19 06:24:23;;;;;;;0.20;0.20;;;18.00;99.90;;;;;;5012000;28;20225;-80
2022/08/19 06:26:55;;;;;;;2.13;0.30;;;17.90;99.90;;;;;;5010547;28;20249;-80
2022/08/19 06:29:29;;;;;;;0.47;0.28;;;17.80;99.90;;;;;;5010484;28;20198;-68
2022/08/19 06:32:02;;;;;;;0.15;0.15;;;17.80;99.90;;;;;;5008606;28;20206;-68
2022/08/19 06:34:34;;;;;;;0.90;0.20;;;17.70;99.90;;;;;;5009981;28;20452;-69
2022/08/19 06:37:05;;;;;;;0.55;0.20;;;17.70;99.90;;;;;;5011452;28;20242;-70
2022/08/19 06:39:38;;;;;;;1.20;0.25;;;17.60;99.90;;;;;;5012464;28;20187;-69
2022/08/19 06:42:11;;;;;;;0.65;0.20;;;17.60;99.90;;;;;;5012011;28;20656;-68
2022/08/19 06:44:45;;;;;;;0.20;0.20;;;17.40;99.90;;;;;;5005017;28;20205;-68
2022/08/19 06:47:17;;;;;;;0.30;0.30;;;17.40;99.90;;;;;;5008426;28;20215;-67
2022/08/19 06:49:48;;;;;;;1.48;0.40;;;17.30;99.90;;;;;;5010344;28;20658;-69
2022/08/19 06:52:19;;;;;;;1.35;0.60;;;17.20;99.90;;;;;;5010546;28;20201;-69
2022/08/19 06:54:50;;;;;;;5.97;0.90;;;17.20;99.90;;;;;;5011608;28;20191;-70
2022/08/19 06:57:21;;;;;;;2.65;0.88;;;17.00;99.90;;;;;;5012356;28;20205;-71
2022/08/19 06:59:54;;;;;;;3.80;1.00;;;16.80;99.90;;;;;;5010594;28;20202;-72
2022/08/19 07:02:26;;;;;;;7.75;0.90;;;16.70;99.90;;;;;;5009203;28;20230;-79
2022/08/19 07:04:57;;;;;;;4.72;1.27;;;16.60;99.90;;;;;;5007505;28;20727;-72
2022/08/19 07:07:28;;;;;;;5.20;1.10;;;16.40;99.90;;;;;;5011705;28;20265;-68
2022/08/19 07:09:59;;;;;;;4.13;1.00;;;16.20;99.90;;;;;;5012146;28;20191;-70
2022/08/19 07:12:34;;;;;;;4.68;1.02;;;16.10;99.90;;;;;;5011733;28;20198;-81
2022/08/19 07:15:09;;;;;;;7.30;1.15;;;16.00;99.90;;;;;;5010286;28;20188;-82
2022/08/19 07:17:40;;;;;;;3.95;1.10;;;15.90;99.90;;;;;;5011368;28;20631;-81
2022/08/19 07:20:12;;;;;;;5.18;1.05;;;15.80;99.90;;;;;;4998874;28;20222;-80
2022/08/19 07:22:45;;;;;;;2.92;0.98;;;15.60;99.90;;;;;;5011405;28;20199;-78
2022/08/19 07:25:17;;;;;;;2.97;0.70;;;15.50;99.90;;;;;;5012271;28;20190;-79
2022/08/19 07:27:48;;;;;;;1.98;0.70;;;15.40;99.90;;;;;;5005464;28;20211;-82
2022/08/19 07:30:22;;;;;;;2.78;0.65;;;15.40;99.90;;;;;;5004911;28;20195;-79
2022/08/19 07:32:53;;;;;;;4.93;0.80;;;15.30;99.90;;;;;;5010478;28;20199;-70
2022/08/19 07:35:24;;;;;;;1.15;0.60;;;15.20;99.90;;;;;;5008880;28;20191;-69
2022/08/19 07:37:55;;;;;;;2.47;0.63;;;15.10;99.90;;;;;;5004529;28;20667;-68
2022/08/19 07:40:26;;;;;;;2.40;0.75;;;15.00;99.90;;;;;;5011578;28;20193;-68
2022/08/19 07:42:57;;;;;;;2.13;0.68;;;15.00;99.90;;;;;;5002891;28;20650;-68
2022/08/19 07:45:31;;;;;;;2.28;0.70;;;14.90;99.90;;;;;;5012012;28;20193;-72
2022/08/19 07:48:03;;;;;;;1.70;1.00;;;14.80;99.90;;;;;;5008139;28;20709;-70
2022/08/19 07:50:34;;;;;;;2.85;1.17;;;14.70;99.90;;;;;;5011721;28;20596;-71
2022/08/19 07:53:05;;;;;;;2.00;0.90;;;14.60;99.90;;;;;;5011857;28;20197;-69
2022/08/19 07:55:35;;;;;;;1.17;0.70;;;14.60;99.90;;;;;;5011770;28;20197;-77
2022/08/19 07:58:06;;;;;;;1.55;0.70;;;14.50;99.90;;;;;;5010019;28;20206;-68
2022/08/19 08:00:39;;;;;;;0.77;0.47;;;14.50;99.90;;;;;;5009428;28;20277;-69
2022/08/19 08:03:10;;;;;;;2.03;0.60;;;14.50;99.90;;;;;;5005683;28;20202;-68
2022/08/19 08:11:15;;;;;;;2.03;0.70;;;14.40;99.90;;;;;;5009418;28;20607;-68
2022/08/19 08:13:46;;;;;;;1.23;0.70;;;14.40;99.90;;;;;;5013110;28;20685;-68
2022/08/19 08:16:18;;;;;;;1.17;0.70;;;14.30;99.90;;;;;;5009312;28;20198;-67
2022/08/19 08:18:49;;;;;;;1.73;0.60;;;14.20;99.90;;;;;;5005237;28;20679;-70
2022/08/19 08:21:20;;;;;;;3.92;1.30;;;14.20;99.90;;;;;;5002887;28;20669;-68
2022/08/19 08:23:55;;;;;;;2.60;1.00;;;14.20;99.90;;;;;;5012757;28;20216;-67
2022/08/19 08:26:26;;;;;;;2.78;0.90;;;14.10;99.90;;;;;;5014036;28;20581;-67
2022/08/19 08:28:57;;;;;;;2.47;0.80;;;14.10;99.90;;;;;;5011763;28;20198;-68
2022/08/19 08:31:30;;;;;;;1.67;0.80;;;14.00;99.90;;;;;;5012341;28;20199;-68
2022/08/19 08:34:01;;;;;;;1.30;0.60;;;13.90;99.90;;;;;;5008337;28;20229;-68
2022/08/19 08:36:33;;;;;;;1.70;0.60;;;13.90;99.90;;;;;;5010048;28;20238;-72
2022/08/19 08:39:04;;;;;;;1.00;0.60;;;13.90;99.90;;;;;;5012792;28;20578;-68
2022/08/19 08:41:44;;;;;;;1.15;0.60;;;13.80;99.90;;;;;;5014878;28;20187;-69
2022/08/19 08:44:20;;;;;;;2.05;0.60;;;13.80;99.90;;;;;;5007314;28;20191;-73
2022/08/19 08:46:56;;;;;;;1.75;0.68;;;13.80;99.90;;;;;;5014605;28;20210;-68
2022/08/19 08:49:48;;;;;;;1.02;0.70;;;13.80;99.90;;;;;;5014847;28;20183;-69
2022/08/19 08:52:24;;;;;;;0.98;0.73;;;13.70;99.90;;;;;;5013110;28;20198;-71
2022/08/19 08:55:02;;;;;;;2.28;0.70;;;13.70;99.90;;;;;;5011723;28;20202;-78
2022/08/19 08:57:34;;;;;;;1.10;0.70;;;13.70;99.90;;;;;;5009700;28;20241;-79
2022/08/19 09:00:09;;;;;;;1.42;0.80;;;13.70;99.90;;;;;;5013750;28;20199;-75
2022/08/19 09:02:42;;;;;;;1.10;0.70;;;13.60;99.90;;;;;;5013981;28;20202;-76
2022/08/19 09:05:14;;;;;;;4.53;0.80;;;13.60;99.90;;;;;;5012301;28;20593;-68
2022/08/19 09:07:52;;;;;;;1.65;0.80;;;13.60;99.90;;;;;;5008369;28;20244;-69
2022/08/19 09:10:40;;;;;;;1.25;0.73;;;13.50;99.90;;;;;;5012746;28;20603;-67
2022/08/19 09:13:20;;;;;;;2.15;0.75;;;13.50;99.90;;;;;;5012205;28;20202;-68
2022/08/19 09:15:55;;;;;;;1.98;0.70;;;13.50;99.90;;;;;;5009925;28;20199;-68
2022/08/19 09:18:28;;;;;;;2.30;0.80;;;13.50;99.90;;;;;;5012445;28;20207;-67
2022/08/19 09:20:58;;;;;;;2.63;0.70;;;13.50;99.90;;;;;;5009830;28;20662;-69
2022/08/19 09:23:29;;;;;;;1.60;0.70;;;13.40;99.90;;;;;;5011798;28;20213;-67
2022/08/19 09:26:00;;;;;;;4.32;0.90;;;13.50;99.90;;;;;;5010565;28;20205;-68
2022/08/19 09:28:31;;;;;;;1.00;0.80;;;13.40;99.90;;;;;;5006327;28;20857;-69
2022/08/19 09:31:01;;;;;;;2.78;0.98;;;13.40;99.90;;;;;;5005530;28;20221;-68
2022/08/19 09:33:34;;;;;;;1.80;1.02;;;13.40;99.90;;;;;;5009006;28;20219;-68
2022/08/19 09:36:10;;;;;;;2.72;1.38;;;13.30;99.90;;;;;;5011170;28;20199;-67
2022/08/19 09:38:42;;;;;;;2.15;1.20;;;13.30;99.90;;;;;;5008930;28;20202;-68
2022/08/19 09:41:15;;;;;;;2.28;1.05;;;13.30;99.90;;;;;;5011414;28;20712;-68
2022/08/19 09:43:51;;;;;;;2.63;1.20;;;13.30;99.90;;;;;;5012938;28;20202;-69
2022/08/19 09:46:23;;;;;;;1.40;1.13;;;13.30;99.90;;;;;;5011031;28;20214;-68
2022/08/19 09:48:58;;;;;;;1.60;1.02;;;13.20;99.90;;;;;;5008514;28;20677;-69
2022/08/19 09:51:32;;;;;;;1.85;1.02;;;13.20;99.90;;;;;;5012200;28;20195;-67
2022/08/19 09:54:05;;;;;;;2.50;1.20;;;13.20;99.90;;;;;;5012829;28;20209;-68
2022/08/19 09:56:36;;;;;;;1.98;1.00;;;13.20;99.90;;;;;;5003906;28;20202;-68
2022/08/19 09:59:07;;;;;;;1.98;1.27;;;13.10;99.90;;;;;;5013062;28;20199;-72
2022/08/19 10:01:37;;;;;;;2.92;1.30;;;13.10;99.90;;;;;;5009426;28;20569;-68
2022/08/19 10:04:10;;;;;;;2.42;1.20;;;13.10;99.90;;;;;;5011836;28;20213;-68
2022/08/19 10:06:42;;;;;;;2.10;1.30;;;13.10;99.90;;;;;;5006083;28;20203;-69
2022/08/19 10:09:13;;;;;;;77.97;51.65;;;13.10;99.90;;;;;;5010042;28;20245;-71
2022/08/19 10:11:49;;;;;;;114.03;69.10;;;13.10;99.90;;;;;;5002053;28;20211;-69
2022/08/19 10:14:22;;;;;;;22.50;15.68;;;13.10;99.90;;;;;;5007578;28;20198;-71
2022/08/19 10:16:52;;;;;;;5.88;4.05;;;13.10;99.90;;;;;;5008764;28;20712;-76
2022/08/19 10:19:25;;;;;;;7.03;4.35;;;13.10;99.90;;;;;;5008643;28;20229;-75
2022/08/19 10:21:56;;;;;;;5.47;2.38;;;13.00;99.90;;;;;;5009698;28;20235;-75
2022/08/19 10:24:27;;;;;;;2.47;1.75;;;13.00;99.90;;;;;;5010765;28;20585;-76
2022/08/19 10:26:58;;;;;;;2.10;1.67;;;13.00;99.90;;;;;;5004169;28;20210;-75
2022/08/19 10:29:29;;;;;;;4.60;2.05;;;12.90;99.90;;;;;;5005055;28;20199;-72
2022/08/19 10:32:00;;;;;;;2.80;1.88;;;12.80;99.90;;;;;;5008618;28;20207;-76
2022/08/19 10:34:33;;;;;;;2.67;1.70;;;12.90;99.90;;;;;;5008977;28;20222;-75
2022/08/19 10:37:05;;;;;;;2.55;1.60;;;12.80;99.90;;;;;;5011687;28;20249;-77
2022/08/19 10:39:36;;;;;;;2.88;1.52;;;12.80;99.90;;;;;;5006206;28;20206;-72
2022/08/19 10:42:10;;;;;;;3.03;1.58;;;12.80;99.90;;;;;;5003403;28;20191;-79
2022/08/19 10:44:41;;;;;;;3.28;1.60;;;12.80;99.90;;;;;;5009478;28;20210;-75
2022/08/19 10:47:12;;;;;;;2.88;1.52;;;12.70;99.90;;;;;;5002101;28;20208;-80
2022/08/19 10:52:36;;;;;;;2.35;1.58;;;12.60;99.90;;;;;;4993568;28;20206;-77
2022/08/19 10:57:55;;;;;;;2.78;1.70;;;12.60;99.90;;;;;;5003188;28;20210;-67
2022/08/19 11:00:27;;;;;;;3.65;1.98;;;12.60;99.90;;;;;;5008325;28;20205;-68
2022/08/19 11:02:57;;;;;;;1.85;1.67;;;12.50;99.90;;;;;;5005073;28;20654;-68
2022/08/19 11:05:30;;;;;;;3.15;1.80;;;12.50;99.90;;;;;;5009421;28;21111;-68
2022/08/19 11:08:01;;;;;;;2.30;1.60;;;12.50;99.90;;;;;;5008488;28;20215;-69
2022/08/19 11:10:31;;;;;;;3.67;1.63;;;12.40;99.90;;;;;;5008732;28;20199;-68
2022/08/19 11:13:02;;;;;;;2.45;1.58;;;12.40;99.90;;;;;;5010451;28;20203;-69
2022/08/19 11:15:33;;;;;;;2.50;1.23;;;12.40;99.90;;;;;;5010925;28;20226;-68
2022/08/19 11:18:05;;;;;;;1.95;1.30;;;12.30;99.90;;;;;;5010735;28;20198;-72
2022/08/19 11:20:38;;;;;;;1.98;1.52;;;12.30;99.90;;;;;;5011672;28;20625;-71
2022/08/19 11:23:08;;;;;;;2.33;1.20;;;12.30;99.90;;;;;;5011359;28;20203;-70
2022/08/19 11:25:42;;;;;;;1.70;1.40;;;12.30;99.90;;;;;;5010711;28;20198;-70
2022/08/19 11:28:13;;;;;;;2.50;1.10;;;12.20;99.90;;;;;;5011025;28;20222;-68
2022/08/19 11:30:44;;;;;;;1.60;1.20;;;12.20;99.90;;;;;;5008391;28;20199;-68
2022/08/19 11:33:14;;;;;;;3.28;1.30;;;12.20;99.90;;;;;;5010147;28;20218;-68
2022/08/19 11:35:47;;;;;;;1.83;1.20;;;12.20;99.90;;;;;;5009427;28;20210;-76
2022/08/19 11:38:18;;;;;;;1.55;1.17;;;12.20;99.90;;;;;;5009510;28;20240;-68
2022/08/19 11:40:55;;;;;;;2.13;1.20;;;12.20;99.90;;;;;;5006838;28;20202;-67
2022/08/19 11:43:26;;;;;;;2.03;1.33;;;12.20;99.90;;;;;;5009824;28;20206;-70
2022/08/19 11:45:57;;;;;;;3.50;1.17;;;12.20;99.90;;;;;;5007913;28;20199;-67
2022/08/19 11:48:28;;;;;;;1.38;1.20;;;12.20;99.90;;;;;;5006530;28;20223;-67
2022/08/19 11:51:01;;;;;;;2.90;1.27;;;12.10;99.90;;;;;;5012676;28;20673;-69
2022/08/19 11:53:34;;;;;;;3.17;1.40;;;12.10;99.90;;;;;;5014191;28;20237;-68
2022/08/19 11:56:05;;;;;;;3.03;1.20;;;12.10;99.90;;;;;;5008922;28;20203;-67
2022/08/19 11:58:36;;;;;;;1.00;0.90;;;12.10;99.90;;;;;;5005696;28;20564;-68
2022/08/19 12:01:10;;;;;;;2.92;1.10;;;12.10;99.90;;;;;;5013257;28;20195;-67
2022/08/19 12:03:41;;;;;;;2.05;1.10;;;12.10;99.90;;;;;;5008697;28;20273;-67
2022/08/19 12:06:16;;;;;;;1.73;1.15;;;12.10;99.90;;;;;;5010674;28;20199;-68
2022/08/19 12:08:48;;;;;;;2.17;1.55;;;12.10;99.90;;;;;;5007483;28;20210;-68
2022/08/19 12:11:19;;;;;;;2.67;1.23;;;12.10;99.90;;;;;;5006412;28;20183;-67
2022/08/19 12:13:49;;;;;;;2.25;1.20;;;12.00;99.90;;;;;;5009193;28;20192;-67
2022/08/19 12:16:23;;;;;;;2.35;1.20;;;12.00;99.90;;;;;;5007183;28;20195;-68
2022/08/19 12:18:54;;;;;;;1.95;1.13;;;11.90;99.90;;;;;;5014397;28;20206;-68
2022/08/19 12:21:29;;;;;;;1.95;1.30;;;11.80;99.90;;;;;;5013479;28;20194;-67
2022/08/19 12:24:02;;;;;;;2.17;1.30;;;11.70;99.90;;;;;;5012130;28;20249;-68
2022/08/19 12:26:33;;;;;;;2.17;1.38;;;11.70;99.90;;;;;;5009284;28;20557;-69
2022/08/19 12:29:04;;;;;;;2.53;1.27;;;11.60;99.90;;;;;;5011723;28;20226;-67
2022/08/19 12:31:35;;;;;;;3.65;1.52;;;11.50;99.90;;;;;;5010197;28;20197;-68
2022/08/19 12:34:06;;;;;;;2.78;1.60;;;11.40;99.90;;;;;;5010466;28;20269;-71
2022/08/19 12:36:39;;;;;;;3.53;1.40;;;11.40;99.90;;;;;;5008795;28;20271;-68
2022/08/19 12:39:10;;;;;;;2.20;1.50;;;11.40;99.90;;;;;;5009932;28;20193;-70
2022/08/19 12:41:41;;;;;;;2.75;1.67;;;11.30;99.90;;;;;;5007041;28;20183;-69
2022/08/19 12:44:12;;;;;;;2.53;1.63;;;11.20;99.90;;;;;;5010421;28;20731;-67
2022/08/19 12:46:42;;;;;;;3.83;1.88;;;11.10;99.90;;;;;;5012217;28;20609;-68
2022/08/19 12:49:13;;;;;;;2.78;1.60;;;11.10;99.90;;;;;;5010245;28;20221;-68
2022/08/19 12:51:46;;;;;;;4.57;1.90;;;11.00;99.90;;;;;;5014917;28;20195;-68
2022/08/19 12:54:17;;;;;;;3.58;2.05;;;11.00;99.90;;;;;;5014175;28;20194;-69
2022/08/19 12:56:48;;;;;;;4.15;2.00;;;11.00;99.90;;;;;;5004935;28;20624;-69
2022/08/19 12:59:18;;;;;;;2.90;1.65;;;11.00;99.90;;;;;;5006114;28;20216;-68
2022/08/19 13:01:49;;;;;;;2.90;1.60;;;11.00;99.90;;;;;;5012344;28;20195;-70
2022/08/19 13:04:20;;;;;;;1.95;1.58;;;11.10;99.90;;;;;;5014762;28;20187;-68
2022/08/19 13:06:53;;;;;;;2.53;1.45;;;11.10;99.90;;;;;;5014068;28;20650;-67
2022/08/19 13:09:23;;;;;;;3.67;1.45;;;11.10;99.90;;;;;;5014559;28;20218;-67
2022/08/19 13:11:54;;;;;;;2.53;1.50;;;11.10;99.90;;;;;;5014021;28;20195;-68
2022/08/19 13:14:25;;;;;;;3.92;1.58;;;11.20;99.90;;;;;;5013151;28;20198;-68
2022/08/19 13:16:56;;;;;;;2.58;1.40;;;11.20;99.90;;;;;;5013612;28;20199;-69
2022/08/19 13:19:26;;;;;;;4.07;1.60;;;11.30;99.90;;;;;;5012814;28;20222;-68
2022/08/19 13:21:59;;;;;;;4.07;1.70;;;11.30;99.90;;;;;;5011248;28;20673;-76
2022/08/19 13:24:30;;;;;;;2.55;1.55;;;11.30;99.90;;;;;;5013573;28;20268;-68
2022/08/19 13:27:01;;;;;;;2.95;1.42;;;11.40;99.90;;;;;;5012248;28;20198;-68
2022/08/19 13:35:05;;;;;;;4.63;1.10;;;11.50;99.90;;;;;;5007651;28;20213;-69
2022/08/19 13:37:43;;;;;;;2.17;1.38;;;11.60;99.90;;;;;;5012322;28;20237;-74